sensor_id;sensor_type;location;lat;lon;timestamp;temperature;humidity
16485;DHT22;8353;47.856;12.344;2023-05-09T00:02:06;16.40;99.90
16485;DHT22;8353;47.856;12.344;2023-05-09T00:04:53;16.40;99.90
16485;DHT22;8353;47.856;12.344;2023-05-09T00:07:40;16.40;99.90
16485;DHT22;8353;47.856;12.344;2023-05-09T00:10:27;16.30;99.90
16485;DHT22;8353;47.856;12.344;2023-05-09T00:13:13;16.30;99.90
16485;DHT22;8353;47.856;12.344;2023-05-09T00:16:00;16.40;99.90
16485;DHT22;8353;47.856;12.344;2023-05-09T00:18:49;16.30;99.90
16485;DHT22;8353;47.856;12.344;2023-05-09T00:21:36;16.30;99.90
16485;DHT22;8353;47.856;12.344;2023-05-09T00:24:23;16.30;99.90
16485;DHT22;8353;47.856;12.344;2023-05-09T00:27:09;16.20;99.90
16485;DHT22;8353;47.856;12.344;2023-05-09T00:29:56;16.20;99.90
16485;DHT22;8353;47.856;12.344;2023-05-09T00:32:43;16.20;99.90
16485;DHT22;8353;47.856;12.344;2023-05-09T00:35:31;16.20;99.90
16485;DHT22;8353;47.856;12.344;2023-05-09T00:38:19;16.20;99.90
16485;DHT22;8353;47.856;12.344;2023-05-09T00:41:06;16.10;99.90
16485;DHT22;8353;47.856;12.344;2023-05-09T00:43:53;16.10;99.90
16485;DHT22;8353;47.856;12.344;2023-05-09T00:46:40;16.00;99.90
16485;DHT22;8353;47.856;12.344;2023-05-09T00:49:27;16.00;99.90
16485;DHT22;8353;47.856;12.344;2023-05-09T00:52:15;16.00;99.90
16485;DHT22;8353;47.856;12.344;2023-05-09T00:55:07;16.00;99.90
16485;DHT22;8353;47.856;12.344;2023-05-09T00:57:54;16.00;99.90
16485;DHT22;8353;47.856;12.344;2023-05-09T01:00:40;16.10;99.90
16485;DHT22;8353;47.856;12.344;2023-05-09T01:03:28;16.10;99.90
16485;DHT22;8353;47.856;12.344;2023-05-09T01:06:21;16.10;99.90
16485;DHT22;8353;47.856;12.344;2023-05-09T01:09:19;16.10;99.90
16485;DHT22;8353;47.856;12.344;2023-05-09T01:12:14;16.10;99.90
16485;DHT22;8353;47.856;12.344;2023-05-09T01:15:06;16.10;99.90
16485;DHT22;8353;47.856;12.344;2023-05-09T01:17:58;16.00;99.90
16485;DHT22;8353;47.856;12.344;2023-05-09T01:20:50;16.00;99.90
16485;DHT22;8353;47.856;12.344;2023-05-09T01:24:03;16.00;99.90
16485;DHT22;8353;47.856;12.344;2023-05-09T01:27:10;16.00;99.90
16485;DHT22;8353;47.856;12.344;2023-05-09T01:30:03;15.90;99.90
16485;DHT22;8353;47.856;12.344;2023-05-09T01:32:54;15.90;99.90
16485;DHT22;8353;47.856;12.344;2023-05-09T01:35:43;16.00;99.90
16485;DHT22;8353;47.856;12.344;2023-05-09T01:38:33;15.90;99.90
16485;DHT22;8353;47.856;12.344;2023-05-09T01:41:24;16.00;99.90
16485;DHT22;8353;47.856;12.344;2023-05-09T01:44:12;16.00;99.90
16485;DHT22;8353;47.856;12.344;2023-05-09T01:47:03;15.90;99.90
16485;DHT22;8353;47.856;12.344;2023-05-09T01:49:51;15.90;99.90
16485;DHT22;8353;47.856;12.344;2023-05-09T01:52:39;15.80;99.90
16485;DHT22;8353;47.856;12.344;2023-05-09T01:55:32;15.80;99.90
16485;DHT22;8353;47.856;12.344;2023-05-09T01:58:20;15.80;99.90
16485;DHT22;8353;47.856;12.344;2023-05-09T02:01:08;15.80;99.90
16485;DHT22;8353;47.856;12.344;2023-05-09T02:03:57;15.70;99.90
16485;DHT22;8353;47.856;12.344;2023-05-09T02:06:47;15.70;99.90
16485;DHT22;8353;47.856;12.344;2023-05-09T02:09:35;15.70;99.90
16485;DHT22;8353;47.856;12.344;2023-05-09T02:12:23;15.70;99.90
16485;DHT22;8353;47.856;12.344;2023-05-09T02:15:10;15.70;99.90
16485;DHT22;8353;47.856;12.344;2023-05-09T02:17:56;15.70;99.90
16485;DHT22;8353;47.856;12.344;2023-05-09T02:20:45;15.60;99.90
16485;DHT22;8353;47.856;12.344;2023-05-09T02:23:31;15.60;99.90
16485;DHT22;8353;47.856;12.344;2023-05-09T02:26:18;15.60;99.90
16485;DHT22;8353;47.856;12.344;2023-05-09T02:29:06;15.60;99.90
16485;DHT22;8353;47.856;12.344;2023-05-09T02:31:53;15.60;99.90
16485;DHT22;8353;47.856;12.344;2023-05-09T02:34:41;15.40;99.90
16485;DHT22;8353;47.856;12.344;2023-05-09T02:37:29;15.40;99.90
16485;DHT22;8353;47.856;12.344;2023-05-09T02:40:17;15.30;99.90
16485;DHT22;8353;47.856;12.344;2023-05-09T02:43:04;15.30;99.90
16485;DHT22;8353;47.856;12.344;2023-05-09T02:45:51;15.30;99.90
16485;DHT22;8353;47.856;12.344;2023-05-09T02:48:38;15.30;99.90
16485;DHT22;8353;47.856;12.344;2023-05-09T02:51:25;15.30;99.90
16485;DHT22;8353;47.856;12.344;2023-05-09T02:54:13;15.30;99.90
16485;DHT22;8353;47.856;12.344;2023-05-09T02:57:00;15.20;99.90
16485;DHT22;8353;47.856;12.344;2023-05-09T02:59:47;15.10;99.90
16485;DHT22;8353;47.856;12.344;2023-05-09T03:02:34;15.10;99.90
16485;DHT22;8353;47.856;12.344;2023-05-09T03:05:21;15.20;99.90
16485;DHT22;8353;47.856;12.344;2023-05-09T03:08:08;15.10;99.90
16485;DHT22;8353;47.856;12.344;2023-05-09T03:10:56;15.10;99.90
16485;DHT22;8353;47.856;12.344;2023-05-09T03:13:43;15.00;99.90
16485;DHT22;8353;47.856;12.344;2023-05-09T03:16:30;15.10;99.90
16485;DHT22;8353;47.856;12.344;2023-05-09T03:19:16;15.00;99.90
16485;DHT22;8353;47.856;12.344;2023-05-09T03:22:03;15.00;99.90
16485;DHT22;8353;47.856;12.344;2023-05-09T03:24:50;14.90;99.90
16485;DHT22;8353;47.856;12.344;2023-05-09T03:27:38;14.80;99.90
16485;DHT22;8353;47.856;12.344;2023-05-09T03:30:25;14.80;99.90
16485;DHT22;8353;47.856;12.344;2023-05-09T03:33:12;14.80;99.90
16485;DHT22;8353;47.856;12.344;2023-05-09T03:35:58;14.70;99.90
16485;DHT22;8353;47.856;12.344;2023-05-09T03:38:45;14.60;99.90
16485;DHT22;8353;47.856;12.344;2023-05-09T03:41:32;14.50;99.90
16485;DHT22;8353;47.856;12.344;2023-05-09T03:44:21;14.40;99.90
16485;DHT22;8353;47.856;12.344;2023-05-09T03:47:08;14.40;99.90
16485;DHT22;8353;47.856;12.344;2023-05-09T03:49:55;14.40;99.90
16485;DHT22;8353;47.856;12.344;2023-05-09T03:52:42;14.40;99.90
16485;DHT22;8353;47.856;12.344;2023-05-09T03:55:29;14.20;99.90
16485;DHT22;8353;47.856;12.344;2023-05-09T03:58:15;14.00;99.90
16485;DHT22;8353;47.856;12.344;2023-05-09T04:01:05;14.00;99.90
16485;DHT22;8353;47.856;12.344;2023-05-09T04:03:52;13.70;99.90
16485;DHT22;8353;47.856;12.344;2023-05-09T04:06:39;13.70;99.90
16485;DHT22;8353;47.856;12.344;2023-05-09T04:09:26;13.80;99.90
16485;DHT22;8353;47.856;12.344;2023-05-09T04:12:13;13.90;99.90
16485;DHT22;8353;47.856;12.344;2023-05-09T04:15:00;13.90;99.90
16485;DHT22;8353;47.856;12.344;2023-05-09T04:17:49;13.80;99.90
16485;DHT22;8353;47.856;12.344;2023-05-09T04:20:36;13.80;99.90
16485;DHT22;8353;47.856;12.344;2023-05-09T04:23:22;13.90;99.90
16485;DHT22;8353;47.856;12.344;2023-05-09T04:26:09;13.90;99.90
16485;DHT22;8353;47.856;12.344;2023-05-09T04:28:58;13.90;99.90
16485;DHT22;8353;47.856;12.344;2023-05-09T04:31:45;13.80;99.90
16485;DHT22;8353;47.856;12.344;2023-05-09T04:34:33;13.80;99.90
16485;DHT22;8353;47.856;12.344;2023-05-09T04:37:20;13.80;99.90
16485;DHT22;8353;47.856;12.344;2023-05-09T04:40:08;13.90;99.90
16485;DHT22;8353;47.856;12.344;2023-05-09T04:42:55;13.80;99.90
16485;DHT22;8353;47.856;12.344;2023-05-09T04:45:43;14.00;99.90
16485;DHT22;8353;47.856;12.344;2023-05-09T04:48:30;13.90;99.90
16485;DHT22;8353;47.856;12.344;2023-05-09T04:51:20;13.90;99.90
16485;DHT22;8353;47.856;12.344;2023-05-09T04:54:07;13.90;99.90
16485;DHT22;8353;47.856;12.344;2023-05-09T04:59:44;13.90;99.90
16485;DHT22;8353;47.856;12.344;2023-05-09T05:02:31;13.90;99.90
16485;DHT22;8353;47.856;12.344;2023-05-09T05:05:18;13.90;99.90
16485;DHT22;8353;47.856;12.344;2023-05-09T05:08:06;14.00;99.90
16485;DHT22;8353;47.856;12.344;2023-05-09T05:10:54;14.10;99.90
16485;DHT22;8353;47.856;12.344;2023-05-09T05:13:41;14.10;99.90
16485;DHT22;8353;47.856;12.344;2023-05-09T05:16:28;14.10;99.90
16485;DHT22;8353;47.856;12.344;2023-05-09T05:19:15;14.10;99.90
16485;DHT22;8353;47.856;12.344;2023-05-09T05:22:01;14.20;99.90
16485;DHT22;8353;47.856;12.344;2023-05-09T05:24:50;14.30;99.90
16485;DHT22;8353;47.856;12.344;2023-05-09T05:27:36;14.40;99.90
16485;DHT22;8353;47.856;12.344;2023-05-09T05:30:23;14.40;99.90
16485;DHT22;8353;47.856;12.344;2023-05-09T05:33:10;14.50;99.90
16485;DHT22;8353;47.856;12.344;2023-05-09T05:35:57;14.30;99.90
16485;DHT22;8353;47.856;12.344;2023-05-09T05:38:45;14.40;99.90
16485;DHT22;8353;47.856;12.344;2023-05-09T05:41:33;14.40;99.90
16485;DHT22;8353;47.856;12.344;2023-05-09T05:44:20;14.40;99.90
16485;DHT22;8353;47.856;12.344;2023-05-09T05:47:07;14.50;99.90
16485;DHT22;8353;47.856;12.344;2023-05-09T05:49:54;14.60;99.90
16485;DHT22;8353;47.856;12.344;2023-05-09T05:52:41;14.50;99.90
16485;DHT22;8353;47.856;12.344;2023-05-09T05:55:27;14.40;99.90
16485;DHT22;8353;47.856;12.344;2023-05-09T05:58:15;14.40;99.90
16485;DHT22;8353;47.856;12.344;2023-05-09T06:01:02;14.50;99.90
16485;DHT22;8353;47.856;12.344;2023-05-09T06:03:49;14.50;99.90
16485;DHT22;8353;47.856;12.344;2023-05-09T06:06:39;14.50;99.90
16485;DHT22;8353;47.856;12.344;2023-05-09T06:09:26;14.50;99.90
16485;DHT22;8353;47.856;12.344;2023-05-09T06:12:12;14.40;99.90
16485;DHT22;8353;47.856;12.344;2023-05-09T06:15:03;14.40;99.90
16485;DHT22;8353;47.856;12.344;2023-05-09T06:17:50;14.40;99.90
16485;DHT22;8353;47.856;12.344;2023-05-09T06:20:37;14.70;99.90
16485;DHT22;8353;47.856;12.344;2023-05-09T06:23:24;15.10;99.90
16485;DHT22;8353;47.856;12.344;2023-05-09T06:26:11;15.40;99.90
16485;DHT22;8353;47.856;12.344;2023-05-09T06:28:59;15.50;99.90
16485;DHT22;8353;47.856;12.344;2023-05-09T06:31:47;15.70;99.90
16485;DHT22;8353;47.856;12.344;2023-05-09T06:34:34;15.90;99.90
16485;DHT22;8353;47.856;12.344;2023-05-09T06:37:20;15.90;99.90
16485;DHT22;8353;47.856;12.344;2023-05-09T06:40:08;16.10;99.90
16485;DHT22;8353;47.856;12.344;2023-05-09T06:42:55;16.30;99.90
16485;DHT22;8353;47.856;12.344;2023-05-09T06:45:42;16.50;99.90
16485;DHT22;8353;47.856;12.344;2023-05-09T06:48:30;16.40;99.90
16485;DHT22;8353;47.856;12.344;2023-05-09T06:51:17;16.60;99.90
16485;DHT22;8353;47.856;12.344;2023-05-09T06:54:04;16.70;99.90
16485;DHT22;8353;47.856;12.344;2023-05-09T06:56:53;16.80;99.90
16485;DHT22;8353;47.856;12.344;2023-05-09T06:59:39;16.90;99.90
16485;DHT22;8353;47.856;12.344;2023-05-09T07:02:28;16.70;99.90
16485;DHT22;8353;47.856;12.344;2023-05-09T07:05:16;16.70;99.90
16485;DHT22;8353;47.856;12.344;2023-05-09T07:08:07;16.80;99.90
16485;DHT22;8353;47.856;12.344;2023-05-09T07:10:54;17.00;99.90
16485;DHT22;8353;47.856;12.344;2023-05-09T07:13:42;17.10;99.90
16485;DHT22;8353;47.856;12.344;2023-05-09T07:16:31;17.00;99.90
16485;DHT22;8353;47.856;12.344;2023-05-09T07:19:18;17.10;99.90
16485;DHT22;8353;47.856;12.344;2023-05-09T07:22:06;17.40;99.90
16485;DHT22;8353;47.856;12.344;2023-05-09T07:24:53;17.60;99.90
16485;DHT22;8353;47.856;12.344;2023-05-09T07:27:42;17.70;99.90
16485;DHT22;8353;47.856;12.344;2023-05-09T07:30:28;17.70;99.90
16485;DHT22;8353;47.856;12.344;2023-05-09T07:33:15;17.80;99.90
16485;DHT22;8353;47.856;12.344;2023-05-09T07:36:02;18.00;99.90
16485;DHT22;8353;47.856;12.344;2023-05-09T07:38:50;18.20;99.90
16485;DHT22;8353;47.856;12.344;2023-05-09T07:41:38;18.40;99.90
16485;DHT22;8353;47.856;12.344;2023-05-09T07:44:25;18.30;99.90
16485;DHT22;8353;47.856;12.344;2023-05-09T07:47:11;18.20;99.90
16485;DHT22;8353;47.856;12.344;2023-05-09T07:49:58;18.40;99.90
16485;DHT22;8353;47.856;12.344;2023-05-09T07:52:45;18.50;99.90
16485;DHT22;8353;47.856;12.344;2023-05-09T07:55:33;18.50;99.90
16485;DHT22;8353;47.856;12.344;2023-05-09T07:58:21;18.60;99.90
16485;DHT22;8353;47.856;12.344;2023-05-09T08:01:07;18.70;99.90
16485;DHT22;8353;47.856;12.344;2023-05-09T08:03:54;18.70;99.90
16485;DHT22;8353;47.856;12.344;2023-05-09T08:06:41;19.00;99.90
16485;DHT22;8353;47.856;12.344;2023-05-09T08:09:28;19.00;99.90
16485;DHT22;8353;47.856;12.344;2023-05-09T08:12:16;19.20;99.90
16485;DHT22;8353;47.856;12.344;2023-05-09T08:15:03;19.30;99.90
16485;DHT22;8353;47.856;12.344;2023-05-09T08:17:52;19.40;99.90
16485;DHT22;8353;47.856;12.344;2023-05-09T08:20:39;19.30;99.90
16485;DHT22;8353;47.856;12.344;2023-05-09T08:23:26;19.40;99.90
16485;DHT22;8353;47.856;12.344;2023-05-09T08:26:14;19.50;99.90
16485;DHT22;8353;47.856;12.344;2023-05-09T08:29:02;19.60;99.90
16485;DHT22;8353;47.856;12.344;2023-05-09T08:31:49;19.80;99.90
16485;DHT22;8353;47.856;12.344;2023-05-09T08:34:36;19.80;99.90
16485;DHT22;8353;47.856;12.344;2023-05-09T08:37:23;19.90;99.90
16485;DHT22;8353;47.856;12.344;2023-05-09T08:40:12;20.00;99.90
16485;DHT22;8353;47.856;12.344;2023-05-09T08:43:00;20.10;99.90
16485;DHT22;8353;47.856;12.344;2023-05-09T08:45:57;20.10;99.90
16485;DHT22;8353;47.856;12.344;2023-05-09T08:48:44;20.20;99.90
16485;DHT22;8353;47.856;12.344;2023-05-09T08:51:33;20.30;99.90
16485;DHT22;8353;47.856;12.344;2023-05-09T08:54:20;20.30;99.90
16485;DHT22;8353;47.856;12.344;2023-05-09T08:57:08;20.50;99.90
16485;DHT22;8353;47.856;12.344;2023-05-09T08:59:55;20.40;99.90
16485;DHT22;8353;47.856;12.344;2023-05-09T09:02:44;20.50;99.90
16485;DHT22;8353;47.856;12.344;2023-05-09T09:05:32;20.70;99.90
16485;DHT22;8353;47.856;12.344;2023-05-09T09:08:22;20.80;99.90
16485;DHT22;8353;47.856;12.344;2023-05-09T09:11:10;20.80;99.90
16485;DHT22;8353;47.856;12.344;2023-05-09T09:14:00;21.00;99.90
16485;DHT22;8353;47.856;12.344;2023-05-09T09:16:48;21.10;99.90
16485;DHT22;8353;47.856;12.344;2023-05-09T09:19:40;21.10;99.90
16485;DHT22;8353;47.856;12.344;2023-05-09T09:22:31;21.20;99.90
16485;DHT22;8353;47.856;12.344;2023-05-09T09:25:19;21.30;99.90
16485;DHT22;8353;47.856;12.344;2023-05-09T09:28:06;21.30;99.90
16485;DHT22;8353;47.856;12.344;2023-05-09T09:30:53;21.00;99.90
16485;DHT22;8353;47.856;12.344;2023-05-09T09:33:43;21.10;99.90
16485;DHT22;8353;47.856;12.344;2023-05-09T09:36:36;21.30;99.90
16485;DHT22;8353;47.856;12.344;2023-05-09T09:39:25;21.60;99.90
16485;DHT22;8353;47.856;12.344;2023-05-09T09:42:12;21.80;99.90
16485;DHT22;8353;47.856;12.344;2023-05-09T09:45:01;21.90;99.90
16485;DHT22;8353;47.856;12.344;2023-05-09T09:47:48;21.80;99.90
16485;DHT22;8353;47.856;12.344;2023-05-09T09:50:35;21.70;99.90
16485;DHT22;8353;47.856;12.344;2023-05-09T09:53:25;22.20;99.90
16485;DHT22;8353;47.856;12.344;2023-05-09T09:56:14;22.20;99.90
16485;DHT22;8353;47.856;12.344;2023-05-09T09:59:11;21.90;99.90
16485;DHT22;8353;47.856;12.344;2023-05-09T10:02:00;21.70;99.90
16485;DHT22;8353;47.856;12.344;2023-05-09T10:04:46;21.50;99.90
16485;DHT22;8353;47.856;12.344;2023-05-09T10:07:34;21.50;99.90
16485;DHT22;8353;47.856;12.344;2023-05-09T10:10:25;21.60;99.90
16485;DHT22;8353;47.856;12.344;2023-05-09T10:13:13;21.70;99.90
16485;DHT22;8353;47.856;12.344;2023-05-09T10:16:00;21.90;99.90
16485;DHT22;8353;47.856;12.344;2023-05-09T10:18:49;22.00;99.90
16485;DHT22;8353;47.856;12.344;2023-05-09T10:21:36;22.10;99.90
16485;DHT22;8353;47.856;12.344;2023-05-09T10:24:28;22.00;99.90
16485;DHT22;8353;47.856;12.344;2023-05-09T10:27:21;22.30;99.90
16485;DHT22;8353;47.856;12.344;2023-05-09T10:30:14;22.20;99.90
16485;DHT22;8353;47.856;12.344;2023-05-09T10:33:08;22.50;99.90
16485;DHT22;8353;47.856;12.344;2023-05-09T10:35:57;22.60;99.90
16485;DHT22;8353;47.856;12.344;2023-05-09T10:38:46;22.50;99.90
16485;DHT22;8353;47.856;12.344;2023-05-09T10:41:34;22.60;99.90
16485;DHT22;8353;47.856;12.344;2023-05-09T10:44:24;22.80;99.90
16485;DHT22;8353;47.856;12.344;2023-05-09T10:47:11;22.70;99.90
16485;DHT22;8353;47.856;12.344;2023-05-09T10:49:58;23.00;99.90
16485;DHT22;8353;47.856;12.344;2023-05-09T10:53:06;23.30;99.90
16485;DHT22;8353;47.856;12.344;2023-05-09T10:55:56;23.80;99.90
16485;DHT22;8353;47.856;12.344;2023-05-09T10:58:46;24.00;99.90
16485;DHT22;8353;47.856;12.344;2023-05-09T11:01:36;24.10;99.90
16485;DHT22;8353;47.856;12.344;2023-05-09T11:04:23;24.10;99.90
16485;DHT22;8353;47.856;12.344;2023-05-09T11:07:24;24.10;99.90
16485;DHT22;8353;47.856;12.344;2023-05-09T11:10:15;24.00;99.90
16485;DHT22;8353;47.856;12.344;2023-05-09T11:13:02;24.10;99.90
16485;DHT22;8353;47.856;12.344;2023-05-09T11:16:03;24.80;99.90
16485;DHT22;8353;47.856;12.344;2023-05-09T11:18:52;24.90;99.90
16485;DHT22;8353;47.856;12.344;2023-05-09T11:21:58;24.40;99.90
16485;DHT22;8353;47.856;12.344;2023-05-09T11:24:47;23.90;99.90
16485;DHT22;8353;47.856;12.344;2023-05-09T11:27:40;24.00;99.90
16485;DHT22;8353;47.856;12.344;2023-05-09T11:30:39;24.10;99.90
16485;DHT22;8353;47.856;12.344;2023-05-09T11:33:27;24.50;99.90
16485;DHT22;8353;47.856;12.344;2023-05-09T11:36:21;25.10;99.90
16485;DHT22;8353;47.856;12.344;2023-05-09T11:39:23;24.80;99.90
16485;DHT22;8353;47.856;12.344;2023-05-09T11:42:10;24.70;99.90
16485;DHT22;8353;47.856;12.344;2023-05-09T11:44:58;24.60;99.90
16485;DHT22;8353;47.856;12.344;2023-05-09T11:47:45;24.10;99.90
16485;DHT22;8353;47.856;12.344;2023-05-09T11:50:32;23.90;99.90
16485;DHT22;8353;47.856;12.344;2023-05-09T11:53:20;24.50;99.90
16485;DHT22;8353;47.856;12.344;2023-05-09T11:56:13;24.70;99.90
16485;DHT22;8353;47.856;12.344;2023-05-09T11:59:01;25.20;99.90
16485;DHT22;8353;47.856;12.344;2023-05-09T12:01:48;25.30;99.90
16485;DHT22;8353;47.856;12.344;2023-05-09T12:04:41;25.20;99.90
16485;DHT22;8353;47.856;12.344;2023-05-09T12:07:29;25.60;99.90
16485;DHT22;8353;47.856;12.344;2023-05-09T12:10:20;25.40;99.90
16485;DHT22;8353;47.856;12.344;2023-05-09T12:13:09;25.30;99.90
16485;DHT22;8353;47.856;12.344;2023-05-09T12:15:59;25.10;99.90
16485;DHT22;8353;47.856;12.344;2023-05-09T12:18:47;25.70;99.90
16485;DHT22;8353;47.856;12.344;2023-05-09T12:21:34;25.30;99.90
16485;DHT22;8353;47.856;12.344;2023-05-09T12:24:21;25.40;99.90
16485;DHT22;8353;47.856;12.344;2023-05-09T12:27:09;25.50;99.90
16485;DHT22;8353;47.856;12.344;2023-05-09T12:29:56;25.60;99.90
16485;DHT22;8353;47.856;12.344;2023-05-09T12:32:44;25.80;99.90
16485;DHT22;8353;47.856;12.344;2023-05-09T12:35:31;25.70;99.90
16485;DHT22;8353;47.856;12.344;2023-05-09T12:38:20;25.90;99.90
16485;DHT22;8353;47.856;12.344;2023-05-09T12:41:09;25.60;99.90
16485;DHT22;8353;47.856;12.344;2023-05-09T12:43:57;25.80;99.90
16485;DHT22;8353;47.856;12.344;2023-05-09T12:46:52;25.90;99.90
16485;DHT22;8353;47.856;12.344;2023-05-09T12:49:39;26.10;99.90
16485;DHT22;8353;47.856;12.344;2023-05-09T12:52:32;26.40;99.90
16485;DHT22;8353;47.856;12.344;2023-05-09T12:55:19;26.00;99.90
16485;DHT22;8353;47.856;12.344;2023-05-09T12:58:06;26.00;99.90
16485;DHT22;8353;47.856;12.344;2023-05-09T13:00:54;25.80;99.90
16485;DHT22;8353;47.856;12.344;2023-05-09T13:03:41;25.90;99.90
16485;DHT22;8353;47.856;12.344;2023-05-09T13:06:29;26.20;99.90
16485;DHT22;8353;47.856;12.344;2023-05-09T13:09:17;26.40;99.90
16485;DHT22;8353;47.856;12.344;2023-05-09T13:12:04;26.40;99.90
16485;DHT22;8353;47.856;12.344;2023-05-09T13:14:58;26.30;99.90
16485;DHT22;8353;47.856;12.344;2023-05-09T13:17:47;26.30;99.90
16485;DHT22;8353;47.856;12.344;2023-05-09T13:20:34;26.20;99.90
16485;DHT22;8353;47.856;12.344;2023-05-09T13:23:21;26.30;99.90
16485;DHT22;8353;47.856;12.344;2023-05-09T13:26:08;26.20;99.90
16485;DHT22;8353;47.856;12.344;2023-05-09T13:28:54;26.40;99.90
16485;DHT22;8353;47.856;12.344;2023-05-09T13:31:41;26.30;99.90
16485;DHT22;8353;47.856;12.344;2023-05-09T13:34:30;26.70;99.90
16485;DHT22;8353;47.856;12.344;2023-05-09T13:37:18;26.50;99.90
16485;DHT22;8353;47.856;12.344;2023-05-09T13:40:08;26.50;99.90
16485;DHT22;8353;47.856;12.344;2023-05-09T13:42:55;26.50;99.90
16485;DHT22;8353;47.856;12.344;2023-05-09T13:45:43;26.70;99.90
16485;DHT22;8353;47.856;12.344;2023-05-09T13:48:29;26.60;99.90
16485;DHT22;8353;47.856;12.344;2023-05-09T13:51:18;26.00;99.90
16485;DHT22;8353;47.856;12.344;2023-05-09T13:54:05;26.20;99.90
16485;DHT22;8353;47.856;12.344;2023-05-09T13:56:57;26.20;99.90
16485;DHT22;8353;47.856;12.344;2023-05-09T13:59:45;26.00;99.90
16485;DHT22;8353;47.856;12.344;2023-05-09T14:02:32;26.00;99.90
16485;DHT22;8353;47.856;12.344;2023-05-09T14:05:19;26.20;99.90
16485;DHT22;8353;47.856;12.344;2023-05-09T14:08:08;26.30;99.90
16485;DHT22;8353;47.856;12.344;2023-05-09T14:10:55;26.20;99.90
16485;DHT22;8353;47.856;12.344;2023-05-09T14:13:42;26.40;99.90
16485;DHT22;8353;47.856;12.344;2023-05-09T14:16:29;26.10;99.90
16485;DHT22;8353;47.856;12.344;2023-05-09T14:19:16;25.90;99.90
16485;DHT22;8353;47.856;12.344;2023-05-09T14:22:04;25.90;99.90
16485;DHT22;8353;47.856;12.344;2023-05-09T14:24:52;25.80;99.90
16485;DHT22;8353;47.856;12.344;2023-05-09T14:27:40;26.20;99.90
16485;DHT22;8353;47.856;12.344;2023-05-09T14:30:27;26.70;99.90
16485;DHT22;8353;47.856;12.344;2023-05-09T14:33:14;26.80;99.90
16485;DHT22;8353;47.856;12.344;2023-05-09T14:36:01;26.70;99.90
16485;DHT22;8353;47.856;12.344;2023-05-09T14:38:48;26.60;99.90
16485;DHT22;8353;47.856;12.344;2023-05-09T14:41:36;26.70;99.90
16485;DHT22;8353;47.856;12.344;2023-05-09T14:44:23;26.60;99.90
16485;DHT22;8353;47.856;12.344;2023-05-09T14:47:10;26.70;99.90
16485;DHT22;8353;47.856;12.344;2023-05-09T14:49:57;26.70;99.90
16485;DHT22;8353;47.856;12.344;2023-05-09T14:52:44;27.10;99.90
16485;DHT22;8353;47.856;12.344;2023-05-09T14:55:30;26.70;99.90
16485;DHT22;8353;47.856;12.344;2023-05-09T14:58:24;26.70;99.90
16485;DHT22;8353;47.856;12.344;2023-05-09T15:01:11;26.80;99.90
16485;DHT22;8353;47.856;12.344;2023-05-09T15:03:57;26.90;99.90
16485;DHT22;8353;47.856;12.344;2023-05-09T15:06:44;27.00;99.90
16485;DHT22;8353;47.856;12.344;2023-05-09T15:09:31;27.30;99.90
16485;DHT22;8353;47.856;12.344;2023-05-09T15:12:18;27.00;99.90
16485;DHT22;8353;47.856;12.344;2023-05-09T15:15:13;27.20;99.90
16485;DHT22;8353;47.856;12.344;2023-05-09T15:18:01;27.10;99.90
16485;DHT22;8353;47.856;12.344;2023-05-09T15:20:47;27.10;99.90
16485;DHT22;8353;47.856;12.344;2023-05-09T15:23:36;27.20;99.90
16485;DHT22;8353;47.856;12.344;2023-05-09T15:26:24;27.00;99.90
16485;DHT22;8353;47.856;12.344;2023-05-09T15:29:16;27.10;99.90
16485;DHT22;8353;47.856;12.344;2023-05-09T15:32:05;27.00;99.90
16485;DHT22;8353;47.856;12.344;2023-05-09T15:34:47;27.10;99.90
16485;DHT22;8353;47.856;12.344;2023-05-09T15:37:34;27.00;99.90
16485;DHT22;8353;47.856;12.344;2023-05-09T15:40:21;27.00;99.90
16485;DHT22;8353;47.856;12.344;2023-05-09T15:43:08;26.80;99.90
16485;DHT22;8353;47.856;12.344;2023-05-09T15:45:54;26.50;99.90
16485;DHT22;8353;47.856;12.344;2023-05-09T15:48:43;26.70;99.90
16485;DHT22;8353;47.856;12.344;2023-05-09T15:51:29;26.50;99.90
16485;DHT22;8353;47.856;12.344;2023-05-09T15:54:17;26.50;99.90
16485;DHT22;8353;47.856;12.344;2023-05-09T15:57:04;26.60;99.90
16485;DHT22;8353;47.856;12.344;2023-05-09T15:59:51;26.50;99.90
16485;DHT22;8353;47.856;12.344;2023-05-09T16:02:39;26.70;99.90
16485;DHT22;8353;47.856;12.344;2023-05-09T16:05:29;26.70;99.90
16485;DHT22;8353;47.856;12.344;2023-05-09T16:08:16;26.40;99.90
16485;DHT22;8353;47.856;12.344;2023-05-09T16:11:03;26.20;99.90
16485;DHT22;8353;47.856;12.344;2023-05-09T16:13:50;26.20;99.90
16485;DHT22;8353;47.856;12.344;2023-05-09T16:16:37;25.90;99.90
16485;DHT22;8353;47.856;12.344;2023-05-09T16:19:24;25.80;99.90
16485;DHT22;8353;47.856;12.344;2023-05-09T16:22:15;25.80;99.90
16485;DHT22;8353;47.856;12.344;2023-05-09T16:25:02;25.60;99.90
16485;DHT22;8353;47.856;12.344;2023-05-09T16:27:49;25.60;99.90
16485;DHT22;8353;47.856;12.344;2023-05-09T16:30:38;25.40;99.90
16485;DHT22;8353;47.856;12.344;2023-05-09T16:33:26;25.70;99.90
16485;DHT22;8353;47.856;12.344;2023-05-09T16:36:13;25.90;99.90
16485;DHT22;8353;47.856;12.344;2023-05-09T16:39:01;25.90;99.90
16485;DHT22;8353;47.856;12.344;2023-05-09T16:41:48;26.00;99.90
16485;DHT22;8353;47.856;12.344;2023-05-09T16:44:35;25.70;99.90
16485;DHT22;8353;47.856;12.344;2023-05-09T16:47:22;25.30;99.90
16485;DHT22;8353;47.856;12.344;2023-05-09T16:50:09;25.10;99.90
16485;DHT22;8353;47.856;12.344;2023-05-09T16:52:56;24.90;99.90
16485;DHT22;8353;47.856;12.344;2023-05-09T16:55:44;24.80;99.90
16485;DHT22;8353;47.856;12.344;2023-05-09T16:58:31;24.60;99.90
16485;DHT22;8353;47.856;12.344;2023-05-09T17:01:18;24.30;99.90
16485;DHT22;8353;47.856;12.344;2023-05-09T17:04:05;24.30;99.90
16485;DHT22;8353;47.856;12.344;2023-05-09T17:06:52;24.00;99.90
16485;DHT22;8353;47.856;12.344;2023-05-09T17:09:39;24.20;99.90
16485;DHT22;8353;47.856;12.344;2023-05-09T17:12:27;24.40;99.90
16485;DHT22;8353;47.856;12.344;2023-05-09T17:15:14;24.40;99.90
16485;DHT22;8353;47.856;12.344;2023-05-09T17:18:01;24.50;99.90
16485;DHT22;8353;47.856;12.344;2023-05-09T17:20:48;24.50;99.90
16485;DHT22;8353;47.856;12.344;2023-05-09T17:23:35;24.30;99.90
16485;DHT22;8353;47.856;12.344;2023-05-09T17:26:22;24.10;99.90
16485;DHT22;8353;47.856;12.344;2023-05-09T17:29:10;24.20;99.90
16485;DHT22;8353;47.856;12.344;2023-05-09T17:31:57;24.00;99.90
16485;DHT22;8353;47.856;12.344;2023-05-09T17:34:44;23.90;99.90
16485;DHT22;8353;47.856;12.344;2023-05-09T17:37:31;23.60;99.90
16485;DHT22;8353;47.856;12.344;2023-05-09T17:40:18;23.70;99.90
16485;DHT22;8353;47.856;12.344;2023-05-09T17:43:05;23.70;99.90
16485;DHT22;8353;47.856;12.344;2023-05-09T17:45:54;23.60;99.90